Time;durP1;ratioP1;P1;durP2;ratioP2;P2;SDS_P1;SDS_P2;PMS_P1;PMS_P2;Temp;Humidity;BMP_temperature;BMP_pressure;BME280_temperature;BME280_humidity;BME280_pressure;Samples;Min_cycle;Max_cycle;Signal;HPM_P1;HPM_P2
2021/07/02 00:02:05;;;;;;;11.25;5.63;;;;;;;16.04;49.90;101306.94;3621057;39;20059;-72
2021/07/02 00:04:34;;;;;;;9.80;5.75;;;;;;;16.07;49.99;101311.25;3602205;39;20438;-72
2021/07/02 00:07:03;;;;;;;11.73;6.20;;;;;;;16.03;50.02;101309.84;3603223;39;20380;-73
2021/07/02 00:09:31;;;;;;;7.45;4.90;;;;;;;16.01;50.19;101307.25;3620477;39;20040;-73
2021/07/02 00:12:00;;;;;;;9.38;4.90;;;;;;;16.01;49.93;101301.72;3620875;39;20128;-73
2021/07/02 00:14:28;;;;;;;9.38;5.13;;;;;;;16.01;50.07;101296.22;3620727;39;20050;-72
2021/07/02 00:16:56;;;;;;;8.65;5.15;;;;;;;16.01;49.85;101304.50;3611354;39;20147;-73
2021/07/02 00:19:26;;;;;;;9.57;5.07;;;;;;;16.02;50.16;101303.47;3616047;39;20128;-73
2021/07/02 00:21:55;;;;;;;7.70;5.07;;;;;;;16.03;50.23;101307.97;3620812;39;20057;-72
2021/07/02 00:24:23;;;;;;;8.98;5.63;;;;;;;16.00;49.82;101301.88;3611338;39;20043;-73
2021/07/02 00:26:51;;;;;;;10.27;5.60;;;;;;;16.00;50.39;101294.47;3620496;39;20035;-72
2021/07/02 00:29:20;;;;;;;9.93;5.53;;;;;;;16.00;50.13;101291.72;3621047;39;20059;-73
2021/07/02 00:31:48;;;;;;;9.13;5.47;;;;;;;15.99;50.38;101289.97;3620795;39;20327;-73
2021/07/02 00:34:16;;;;;;;9.73;5.43;;;;;;;16.00;49.87;101291.72;3620380;39;20349;-73
2021/07/02 00:36:44;;;;;;;9.50;5.13;;;;;;;15.99;50.25;101291.88;3611603;39;20389;-73
2021/07/02 00:39:14;;;;;;;8.25;5.25;;;;;;;16.01;49.97;101289.81;3620637;39;20393;-73
2021/07/02 00:41:43;;;;;;;9.48;5.60;;;;;;;15.98;50.11;101287.38;3603225;39;20062;-73
2021/07/02 00:44:11;;;;;;;9.82;5.43;;;;;;;15.98;49.95;101285.47;3611555;39;20032;-73
2021/07/02 00:46:39;;;;;;;10.85;5.38;;;;;;;15.98;49.79;101282.72;3603325;39;20036;-72
2021/07/02 00:49:09;;;;;;;11.70;5.65;;;;;;;15.98;50.40;101284.59;3620667;39;20039;-72
2021/07/02 00:51:38;;;;;;;9.88;5.45;;;;;;;15.97;50.40;101283.75;3601601;39;20039;-72
2021/07/02 00:54:07;;;;;;;9.88;4.70;;;;;;;15.97;49.76;101286.50;3606624;39;20400;-72
2021/07/02 00:56:37;;;;;;;10.38;5.45;;;;;;;15.98;49.79;101276.34;3602996;39;20051;-74
2021/07/02 00:59:05;;;;;;;8.10;5.18;;;;;;;15.97;49.92;101280.16;3590083;39;20032;-73
2021/07/02 01:01:33;;;;;;;9.43;5.10;;;;;;;15.95;50.02;101277.53;3589707;40;20158;-72
2021/07/02 01:04:05;;;;;;;10.85;4.97;;;;;;;15.95;49.96;101272.03;3614171;39;20362;-73
2021/07/02 01:06:34;;;;;;;10.02;5.32;;;;;;;15.94;49.82;101281.31;3610730;39;20028;-73
2021/07/02 01:09:05;;;;;;;7.97;4.80;;;;;;;15.95;49.68;101279.44;3601385;39;20286;-72
2021/07/02 01:11:36;;;;;;;11.30;5.13;;;;;;;15.96;49.89;101281.16;3601539;39;20072;-72
2021/07/02 01:14:06;;;;;;;10.13;5.32;;;;;;;15.94;50.42;101269.41;3596448;39;20124;-72
2021/07/02 01:16:34;;;;;;;9.23;5.05;;;;;;;15.93;49.85;101270.44;3610825;39;20087;-73
2021/07/02 01:19:03;;;;;;;10.98;5.80;;;;;;;15.92;50.06;101280.59;3620133;39;20043;-73
2021/07/02 01:21:34;;;;;;;10.85;5.03;;;;;;;15.95;49.74;101276.66;3598431;39;20055;-73
2021/07/02 01:24:04;;;;;;;9.35;5.13;;;;;;;15.93;49.72;101276.81;3594736;39;20324;-73
2021/07/02 01:26:33;;;;;;;7.30;4.40;;;;;;;15.92;50.09;101272.31;3611474;39;20139;-73
2021/07/02 01:29:01;;;;;;;9.85;5.63;;;;;;;15.92;50.17;101276.97;3608394;39;20055;-72
2021/07/02 01:31:30;;;;;;;11.10;5.45;;;;;;;15.91;50.00;101276.09;3600854;39;20055;-72
2021/07/02 01:33:59;;;;;;;9.57;5.40;;;;;;;15.90;50.19;101271.59;3602116;39;20091;-72
2021/07/02 01:36:27;;;;;;;9.63;5.25;;;;;;;15.90;49.90;101270.72;3641597;22;20044;-71
2021/07/02 01:39:06;;;;;;;9.27;5.35;;;;;;;15.91;50.12;101275.22;3610887;39;20034;-72
2021/07/02 01:41:36;;;;;;;8.45;5.13;;;;;;;15.87;50.29;101271.94;3602506;39;20075;-72
2021/07/02 01:44:06;;;;;;;8.55;5.00;;;;;;;15.88;49.61;101270.91;3601644;39;20042;-70
2021/07/02 01:46:34;;;;;;;8.57;4.75;;;;;;;15.87;49.90;101266.41;3593707;39;20413;-72
2021/07/02 01:49:04;;;;;;;9.23;5.75;;;;;;;15.87;50.11;101269.19;3601962;39;20051;-72
2021/07/02 01:51:34;;;;;;;9.52;5.32;;;;;;;15.86;49.59;101263.81;3601449;39;20043;-72
2021/07/02 01:54:05;;;;;;;9.55;4.97;;;;;;;15.86;50.03;101270.19;3601677;39;20369;-72
2021/07/02 01:56:34;;;;;;;9.68;5.55;;;;;;;15.85;49.99;101262.94;3611270;39;20064;-72
2021/07/02 01:59:03;;;;;;;9.40;5.07;;;;;;;15.84;49.40;101258.44;3611410;39;20040;-72
2021/07/02 02:01:41;;;;;;;9.40;5.03;;;;;;;15.82;49.74;101257.72;3601823;39;20031;-72
2021/07/02 02:04:14;;;;;;;9.90;4.80;;;;;;;15.79;50.07;101264.44;3602268;39;20358;-72
2021/07/02 02:06:43;;;;;;;9.23;5.03;;;;;;;15.81;49.76;101264.25;3601675;39;20155;-72
2021/07/02 02:09:13;;;;;;;8.00;4.95;;;;;;;15.81;49.99;101262.38;3601876;39;20032;-72
2021/07/02 02:11:41;;;;;;;9.60;5.05;;;;;;;15.78;49.98;101264.59;3602056;39;20071;-72
2021/07/02 02:14:13;;;;;;;10.23;4.80;;;;;;;15.76;49.74;101255.59;3601259;39;20032;-72
2021/07/02 02:16:46;;;;;;;8.57;5.18;;;;;;;15.76;49.63;101258.38;3602246;39;20380;-72
2021/07/02 02:19:20;;;;;;;9.02;5.40;;;;;;;15.75;49.97;101251.97;3602220;39;20040;-72
2021/07/02 02:21:49;;;;;;;10.85;5.93;;;;;;;15.74;49.31;101258.50;3593641;39;20116;-72
2021/07/02 02:24:19;;;;;;;8.63;5.47;;;;;;;15.73;49.74;101254.03;3583168;39;20040;-72
2021/07/02 02:26:48;;;;;;;10.43;5.68;;;;;;;15.69;49.90;101255.38;3602023;39;20207;-72
2021/07/02 02:29:16;;;;;;;8.70;5.13;;;;;;;15.68;49.56;101263.78;3593741;39;20032;-72
2021/07/02 02:31:45;;;;;;;12.00;5.53;;;;;;;15.66;50.12;101258.44;3602190;39;20043;-71
2021/07/02 02:34:18;;;;;;;10.13;5.15;;;;;;;15.65;49.81;101251.16;3601977;39;20397;-72
2021/07/02 02:36:49;;;;;;;7.45;5.05;;;;;;;15.65;49.44;101258.56;3593887;39;20032;-72
2021/07/02 02:39:19;;;;;;;9.25;5.07;;;;;;;15.66;49.75;101263.06;3589378;40;20043;-73
2021/07/02 02:41:47;;;;;;;9.75;5.53;;;;;;;15.64;50.14;101260.47;3589751;40;20041;-72
2021/07/02 02:44:16;;;;;;;9.35;5.00;;;;;;;15.64;50.02;101265.16;3598575;39;20068;-73
2021/07/02 02:46:45;;;;;;;8.20;4.75;;;;;;;15.64;49.97;101259.63;3601894;39;20047;-72
2021/07/02 02:49:14;;;;;;;8.93;5.32;;;;;;;15.63;50.03;101253.22;3601557;39;20039;-72
2021/07/02 02:51:42;;;;;;;7.85;4.95;;;;;;;15.64;50.12;101268.75;3601872;39;20063;-72
2021/07/02 02:54:11;;;;;;;9.82;5.00;;;;;;;15.63;49.57;101266.13;3601804;39;20076;-72
2021/07/02 02:59:25;;;;;;;10.60;4.82;;;;;;;15.62;49.53;101267.16;3610112;39;20103;-72
2021/07/02 03:01:53;;;;;;;8.77;4.93;;;;;;;15.62;49.70;101269.91;3601331;39;20247;-73
2021/07/02 03:04:22;;;;;;;9.38;5.15;;;;;;;15.63;49.96;101271.66;3610733;39;20042;-71
2021/07/02 03:06:50;;;;;;;10.00;5.05;;;;;;;15.62;49.66;101265.25;3592873;39;20028;-72
2021/07/02 03:09:19;;;;;;;7.57;4.82;;;;;;;15.62;49.71;101270.78;3610824;39;20031;-72
2021/07/02 03:11:51;;;;;;;8.10;5.18;;;;;;;15.64;49.65;101270.66;3584945;39;20387;-72
2021/07/02 03:14:20;;;;;;;11.07;5.60;;;;;;;15.59;49.92;101270.22;3601225;39;20043;-72
2021/07/02 03:16:49;;;;;;;8.98;5.13;;;;;;;15.62;49.77;101275.41;3593061;39;20028;-72
2021/07/02 03:19:19;;;;;;;8.43;5.00;;;;;;;15.60;49.91;101272.81;3593123;39;20024;-73
2021/07/02 03:21:48;;;;;;;9.05;5.40;;;;;;;15.60;50.17;101266.44;3601396;39;20061;-72
2021/07/02 03:24:19;;;;;;;9.57;5.13;;;;;;;15.59;50.16;101273.84;3611274;39;20032;-72
2021/07/02 03:26:49;;;;;;;8.45;5.15;;;;;;;15.61;49.75;101270.94;3612645;39;20042;-72
2021/07/02 03:29:17;;;;;;;11.75;5.75;;;;;;;15.58;49.74;101263.81;3594918;39;20366;-72
2021/07/02 03:31:47;;;;;;;11.88;5.65;;;;;;;15.58;50.29;101272.09;3603217;39;20057;-72
2021/07/02 03:34:16;;;;;;;9.90;5.60;;;;;;;15.58;49.71;101265.72;3595159;39;20041;-72
2021/07/02 03:36:44;;;;;;;9.43;5.32;;;;;;;15.58;49.93;101273.97;3612639;39;20036;-72
2021/07/02 03:39:13;;;;;;;8.75;5.32;;;;;;;15.58;50.16;101273.97;3602749;39;20035;-72
2021/07/02 03:41:41;;;;;;;12.40;5.55;;;;;;;15.56;49.81;101270.53;3603091;39;20110;-72
2021/07/02 03:44:10;;;;;;;7.15;4.30;;;;;;;15.57;50.16;101273.13;3612273;39;20048;-72
2021/07/02 03:46:39;;;;;;;8.23;4.93;;;;;;;15.54;49.76;101269.81;3603203;39;20308;-72
2021/07/02 03:49:07;;;;;;;8.85;4.70;;;;;;;15.54;50.35;101276.19;3603084;39;20140;-72
2021/07/02 03:51:36;;;;;;;7.47;4.65;;;;;;;15.54;49.89;101278.97;3602992;39;20117;-72
2021/07/02 03:54:04;;;;;;;8.50;5.38;;;;;;;15.52;49.73;101263.59;3602718;39;20318;-71
2021/07/02 03:56:33;;;;;;;9.60;4.88;;;;;;;15.53;50.21;101274.47;3612503;39;20055;-72
2021/07/02 03:59:01;;;;;;;9.82;5.03;;;;;;;15.52;50.30;101275.47;3612319;39;20058;-72
2021/07/02 04:01:30;;;;;;;9.20;5.00;;;;;;;15.54;49.94;101281.72;3580674;40;20045;-73
2021/07/02 04:03:59;;;;;;;10.35;5.88;;;;;;;15.53;50.23;101279.09;3610385;39;20397;-72
2021/07/02 04:06:28;;;;;;;8.63;4.85;;;;;;;15.52;49.79;101285.63;3612307;39;20086;-72
2021/07/02 04:08:56;;;;;;;10.57;5.40;;;;;;;15.51;49.98;101289.41;3612167;39;20371;-72
2021/07/02 04:11:24;;;;;;;9.00;5.13;;;;;;;15.51;50.25;101293.03;3612490;39;20027;-71
2021/07/02 04:13:52;;;;;;;9.90;4.93;;;;;;;15.50;49.78;101294.06;3594721;39;20075;-71
2021/07/02 04:16:20;;;;;;;9.18;5.32;;;;;;;15.50;49.84;101293.19;3602615;39;20036;-71
2021/07/02 04:18:50;;;;;;;9.95;5.18;;;;;;;15.52;50.21;101296.66;3612069;39;20048;-71
2021/07/02 04:21:18;;;;;;;8.30;4.93;;;;;;;15.49;50.10;101296.97;3594053;39;20028;-72
2021/07/02 04:23:46;;;;;;;9.88;6.05;;;;;;;15.48;50.35;101298.84;3611747;39;20097;-71
2021/07/02 04:26:15;;;;;;;8.38;5.20;;;;;;;15.47;49.68;101293.53;3612188;39;20036;-71
2021/07/02 04:28:43;;;;;;;9.00;5.22;;;;;;;15.46;49.63;101291.78;3611893;39;20054;-71
2021/07/02 04:31:11;;;;;;;7.85;5.30;;;;;;;15.45;49.99;101288.16;3594127;39;20031;-72
2021/07/02 04:33:39;;;;;;;8.00;5.10;;;;;;;15.44;49.82;101287.28;3611839;39;20036;-73
2021/07/02 04:36:09;;;;;;;8.95;5.15;;;;;;;15.45;49.70;101293.66;3602443;39;20047;-72
2021/07/02 04:38:37;;;;;;;10.70;4.78;;;;;;;15.43;49.76;101295.69;3602275;39;20040;-71
2021/07/02 04:41:05;;;;;;;10.48;5.38;;;;;;;15.43;49.74;101287.44;3602341;39;20042;-70
2021/07/02 04:43:33;;;;;;;7.95;4.85;;;;;;;15.43;49.93;101298.47;3611377;39;20031;-71
2021/07/02 04:46:01;;;;;;;9.02;5.03;;;;;;;15.43;49.92;101296.56;3611457;39;20047;-71
2021/07/02 04:48:42;;;;;;;9.75;4.97;;;;;;;15.43;50.28;101298.47;3612178;39;20031;-72
2021/07/02 04:51:12;;;;;;;9.77;5.35;;;;;;;15.46;50.22;101294.53;3611514;39;20023;-72
2021/07/02 04:53:42;;;;;;;7.28;4.85;;;;;;;15.43;49.91;101301.22;3602065;39;20064;-72
2021/07/02 04:56:12;;;;;;;8.18;4.75;;;;;;;15.45;50.11;101310.22;3602626;39;20031;-72
2021/07/02 04:58:44;;;;;;;9.45;5.22;;;;;;;15.43;50.57;101309.47;3611530;39;20043;-72
2021/07/02 05:01:13;;;;;;;8.10;4.78;;;;;;;15.44;50.52;101308.47;3602424;39;20031;-71
2021/07/02 05:03:41;;;;;;;8.20;5.05;;;;;;;15.45;50.28;101310.22;3602408;39;20036;-72
2021/07/02 05:06:10;;;;;;;8.02;4.47;;;;;;;15.46;50.06;101306.44;3611900;39;20047;-72
2021/07/02 05:08:40;;;;;;;7.35;4.53;;;;;;;15.48;50.69;101304.38;3611863;39;20423;-70
2021/07/02 05:11:10;;;;;;;11.70;5.30;;;;;;;15.47;50.60;101304.53;3601987;39;20035;-73
2021/07/02 05:13:38;;;;;;;9.35;5.55;;;;;;;15.49;50.17;101305.22;3611751;39;20042;-72
2021/07/02 05:16:07;;;;;;;8.23;4.70;;;;;;;15.51;50.80;101304.06;3580515;40;20164;-72
2021/07/02 05:18:35;;;;;;;7.38;4.80;;;;;;;15.53;50.61;101306.69;3601294;39;20036;-72
2021/07/02 05:21:04;;;;;;;9.63;4.88;;;;;;;15.54;50.42;101300.16;3602208;39;20030;-71
2021/07/02 05:23:32;;;;;;;10.15;5.18;;;;;;;15.56;50.08;101306.38;3610890;39;20030;-72
2021/07/02 05:26:02;;;;;;;8.00;5.10;;;;;;;15.59;50.63;101303.28;3593529;39;20040;-71
2021/07/02 05:28:33;;;;;;;7.05;4.22;;;;;;;15.58;50.35;101307.94;3611451;39;20038;-72
2021/07/02 05:31:01;;;;;;;8.27;4.30;;;;;;;15.61;50.29;101306.78;3593619;39;20054;-72
2021/07/02 05:33:29;;;;;;;8.15;4.40;;;;;;;15.60;49.89;101308.66;3611752;39;20396;-71
2021/07/02 05:35:58;;;;;;;6.90;4.20;;;;;;;15.62;50.03;101297.50;3611216;39;20058;-72
2021/07/02 05:38:26;;;;;;;6.85;4.03;;;;;;;15.62;49.73;101295.59;3602254;39;20039;-72
2021/07/02 05:40:55;;;;;;;8.02;4.40;;;;;;;15.63;49.68;101307.50;3611283;39;20037;-72
2021/07/02 05:43:25;;;;;;;6.55;3.95;;;;;;;15.64;49.52;101301.84;3610983;39;20030;-72
2021/07/02 05:45:54;;;;;;;8.13;4.82;;;;;;;15.64;49.10;101312.03;3611994;39;20047;-71
2021/07/02 05:48:23;;;;;;;7.05;4.53;;;;;;;15.63;49.32;101307.50;3611349;39;20378;-72
2021/07/02 05:50:51;;;;;;;7.93;4.53;;;;;;;15.63;49.40;101302.84;3598212;39;20080;-73
2021/07/02 05:53:20;;;;;;;6.75;3.80;;;;;;;15.64;48.91;101314.78;3611188;39;20032;-72
2021/07/02 05:55:48;;;;;;;7.43;4.43;;;;;;;15.64;49.36;101312.03;3610957;39;20068;-72
2021/07/02 05:58:16;;;;;;;7.88;4.18;;;;;;;15.65;49.79;101308.22;3611146;39;20038;-71
2021/07/02 06:00:46;;;;;;;7.68;4.15;;;;;;;15.67;49.16;101308.94;3611005;39;20436;-72
2021/07/02 06:03:13;;;;;;;7.75;4.18;;;;;;;15.66;49.26;101301.69;3611270;39;20130;-73
2021/07/02 06:05:42;;;;;;;8.00;4.70;;;;;;;15.67;49.87;101311.69;3611238;39;20137;-73
2021/07/02 06:08:10;;;;;;;7.88;4.75;;;;;;;15.68;49.67;101314.31;3610919;39;20036;-70
2021/07/02 06:10:38;;;;;;;10.60;5.18;;;;;;;15.70;49.89;101316.91;3610427;39;20036;-70
2021/07/02 06:13:06;;;;;;;6.97;4.75;;;;;;;15.71;49.99;101318.66;3610858;39;20483;-71
2021/07/02 06:15:35;;;;;;;7.53;4.50;;;;;;;15.72;49.85;101312.13;3593255;39;20068;-71
2021/07/02 06:18:10;;;;;;;8.10;4.30;;;;;;;15.78;49.62;101330.81;3601539;39;20046;-72
2021/07/02 06:20:39;;;;;;;8.13;4.13;;;;;;;15.75;49.57;101315.41;3601528;39;20365;-71
2021/07/02 06:23:07;;;;;;;6.25;3.85;;;;;;;15.79;49.90;101324.28;3600564;39;20398;-66
2021/07/02 06:25:35;;;;;;;8.82;4.00;;;;;;;15.79;49.53;101329.78;3608817;39;20087;-69
2021/07/02 06:28:04;;;;;;;8.60;4.60;;;;;;;15.81;49.38;101331.34;3608129;39;21801;-68
2021/07/02 06:30:33;;;;;;;6.28;4.10;;;;;;;15.83;49.47;101331.19;3611989;39;20051;-69
2021/07/02 06:33:01;;;;;;;6.90;4.20;;;;;;;15.86;49.20;101330.03;3598626;39;20355;-69
2021/07/02 06:35:30;;;;;;;10.50;4.90;;;;;;;15.89;49.20;101332.47;3611710;39;20136;-68
2021/07/02 06:37:59;;;;;;;9.43;4.40;;;;;;;15.89;49.14;101335.25;3608332;39;20410;-68
2021/07/02 06:40:28;;;;;;;8.35;4.20;;;;;;;15.91;49.48;101334.03;3599158;39;20044;-70
2021/07/02 06:42:56;;;;;;;6.60;3.97;;;;;;;15.94;49.51;101336.50;3609953;39;20331;-72
2021/07/02 06:45:24;;;;;;;6.88;3.78;;;;;;;15.96;49.44;101336.34;3609467;39;20050;-71
2021/07/02 06:47:55;;;;;;;9.57;3.90;;;;;;;15.99;49.43;101325.84;3600043;39;20047;-71
2021/07/02 06:50:24;;;;;;;7.82;4.15;;;;;;;16.01;49.26;101323.81;3609149;39;20040;-71
2021/07/02 06:52:53;;;;;;;6.97;3.42;;;;;;;16.05;48.82;101327.13;3609415;39;20032;-71
2021/07/02 06:55:22;;;;;;;7.22;4.50;;;;;;;16.06;49.27;101329.72;3599894;39;20060;-69
2021/07/02 06:57:50;;;;;;;6.88;3.60;;;;;;;16.08;49.04;101327.66;3609136;39;20394;-72
2021/07/02 07:00:19;;;;;;;6.22;3.35;;;;;;;16.12;49.04;101342.03;3601081;39;20116;-71
2021/07/02 07:02:48;;;;;;;6.32;3.35;;;;;;;16.13;49.26;101339.13;3601692;39;20330;-72
2021/07/02 07:05:17;;;;;;;7.90;4.18;;;;;;;16.15;49.09;101337.06;3611144;39;20169;-72
2021/07/02 07:07:46;;;;;;;6.65;3.22;;;;;;;16.17;48.74;101343.28;3611135;39;20035;-72
2021/07/02 07:10:16;;;;;;;7.53;3.40;;;;;;;16.21;49.34;101346.63;3610573;39;20028;-71
2021/07/02 07:12:44;;;;;;;6.57;3.60;;;;;;;16.22;49.42;101337.28;3593202;39;20039;-72
2021/07/02 07:15:14;;;;;;;7.10;3.50;;;;;;;16.27;49.38;101345.13;3601257;39;20028;-71
2021/07/02 07:17:42;;;;;;;6.43;3.58;;;;;;;16.31;48.84;101343.75;3610777;39;20035;-73
2021/07/02 07:20:12;;;;;;;6.43;3.17;;;;;;;16.36;48.56;101346.94;3601463;39;20042;-71
2021/07/02 07:22:40;;;;;;;6.57;3.58;;;;;;;16.39;48.81;101346.59;3593371;39;20136;-72
2021/07/02 07:25:11;;;;;;;8.27;3.83;;;;;;;16.44;48.73;101342.34;3610564;39;20040;-71
2021/07/02 07:27:43;;;;;;;6.57;3.30;;;;;;;16.52;48.50;101336.06;3593147;39;20310;-71
2021/07/02 07:30:13;;;;;;;7.22;3.45;;;;;;;16.54;49.30;101339.53;3610932;39;20079;-71
2021/07/02 07:32:41;;;;;;;6.45;3.50;;;;;;;16.62;49.02;101339.59;3611078;39;20035;-70
2021/07/02 07:35:18;;;;;;;7.75;3.55;;;;;;;16.70;49.02;101342.44;3602024;39;20302;-71
2021/07/02 07:37:48;;;;;;;6.45;3.20;;;;;;;16.81;49.31;101338.50;3610895;39;20116;-72
2021/07/02 07:40:16;;;;;;;6.50;3.60;;;;;;;16.91;49.06;101351.22;3610744;39;20035;-72
2021/07/02 07:42:46;;;;;;;5.47;3.20;;;;;;;17.05;49.07;101346.97;3601306;39;20042;-72
2021/07/02 07:45:14;;;;;;;8.27;3.65;;;;;;;17.17;49.34;101345.69;3610585;39;20288;-71
2021/07/02 07:47:44;;;;;;;6.05;3.17;;;;;;;17.30;48.84;101350.78;3601372;39;20044;-71
2021/07/02 07:50:15;;;;;;;6.00;3.17;;;;;;;17.47;48.38;101351.72;3611476;39;20405;-71
2021/07/02 07:52:46;;;;;;;4.72;2.92;;;;;;;17.60;48.84;101349.41;3609757;39;20066;-71
2021/07/02 07:55:16;;;;;;;5.07;3.45;;;;;;;17.76;48.87;101356.88;3611106;39;20043;-71
2021/07/02 07:57:46;;;;;;;5.55;2.90;;;;;;;17.90;47.66;101351.56;3613840;39;20052;-71
2021/07/02 08:00:16;;;;;;;5.00;2.78;;;;;;;18.03;48.06;101353.88;3610064;39;20051;-71
2021/07/02 08:02:45;;;;;;;5.90;2.97;;;;;;;18.15;47.51;101355.28;3614007;39;20063;-71
2021/07/02 08:05:14;;;;;;;4.65;2.70;;;;;;;18.27;47.84;101353.94;3600225;39;20050;-71
2021/07/02 08:07:45;;;;;;;4.40;2.47;;;;;;;18.39;47.47;101346.16;3604680;39;20379;-71
2021/07/02 08:10:17;;;;;;;4.70;2.55;;;;;;;18.51;47.30;101352.22;3608856;39;20040;-71
2021/07/02 08:12:47;;;;;;;6.50;2.83;;;;;;;18.62;46.53;101340.78;3613939;39;20411;-71
2021/07/02 08:15:17;;;;;;;6.25;2.70;;;;;;;18.73;46.42;101357.94;3599942;39;20044;-71
2021/07/02 08:17:47;;;;;;;4.45;2.25;;;;;;;18.80;46.32;101347.91;3604300;39;20063;-71
2021/07/02 08:20:15;;;;;;;3.83;2.28;;;;;;;18.89;46.20;101348.78;3600279;39;20283;-71
2021/07/02 08:22:44;;;;;;;3.80;2.17;;;;;;;18.97;45.46;101348.78;3600224;39;20046;-71
2021/07/02 08:25:13;;;;;;;3.72;2.05;;;;;;;19.04;45.20;101344.25;3609304;39;20051;-71
2021/07/02 08:30:28;;;;;;;3.63;2.10;;;;;;;19.16;44.60;101356.72;3609190;39;20367;-71
2021/07/02 08:32:56;;;;;;;5.53;2.45;;;;;;;19.20;44.73;101344.22;3608275;39;20051;-71
2021/07/02 08:35:24;;;;;;;4.07;1.80;;;;;;;19.25;44.66;101340.91;3609345;39;20088;-71
2021/07/02 08:37:57;;;;;;;3.72;2.08;;;;;;;19.29;44.05;101339.50;3612451;39;20132;-71
2021/07/02 08:40:26;;;;;;;3.38;1.90;;;;;;;19.35;43.79;101349.88;3609164;39;20422;-71
2021/07/02 08:42:54;;;;;;;4.47;2.10;;;;;;;19.38;43.86;101352.31;3612430;39;20101;-71
2021/07/02 08:45:22;;;;;;;4.30;2.30;;;;;;;19.42;43.50;101353.69;3599762;39;20047;-71
2021/07/02 08:47:53;;;;;;;4.78;1.80;;;;;;;19.50;42.19;101348.16;3602615;39;20047;-71
2021/07/02 08:50:22;;;;;;;3.47;2.00;;;;;;;19.48;42.98;101347.44;3608608;39;20044;-71
2021/07/02 08:52:51;;;;;;;4.15;2.10;;;;;;;19.53;43.09;101347.78;3611738;39;20083;-71
2021/07/02 08:55:19;;;;;;;3.92;2.10;;;;;;;19.55;42.78;101337.38;3599547;39;20043;-71
2021/07/02 08:57:47;;;;;;;4.32;2.08;;;;;;;19.56;42.47;101341.00;3612085;39;20414;-71
2021/07/02 09:00:17;;;;;;;3.17;1.92;;;;;;;19.58;42.63;101333.38;3599544;39;20128;-71
2021/07/02 09:02:46;;;;;;;4.63;2.15;;;;;;;19.60;42.67;101341.50;3602598;39;20067;-71
2021/07/02 09:05:28;;;;;;;;;;;;;;;19.34;43.11;101344.53;3600229;39;20398;-71
2021/07/02 09:07:56;;;;;;;3.95;1.80;;;;;;;19.62;42.75;101348.59;3611040;39;20370;-71
2021/07/02 09:10:35;;;;;;;4.18;2.30;;;;;;;19.72;41.19;101353.94;3608902;39;20299;-71
2021/07/02 09:13:04;;;;;;;5.47;2.33;;;;;;;19.72;42.14;101352.03;3591509;39;20051;-71
2021/07/02 09:15:33;;;;;;;4.30;2.30;;;;;;;19.75;41.35;101351.69;3608678;39;20073;-71
2021/07/02 09:18:03;;;;;;;3.13;1.90;;;;;;;19.75;41.81;101351.69;3606020;39;20402;-71
2021/07/02 09:20:36;;;;;;;5.25;2.28;;;;;;;19.79;40.80;101350.28;3608792;39;20051;-71
2021/07/02 09:23:04;;;;;;;;;;;;;;;19.51;42.53;101360.13;3610495;39;20394;-71
2021/07/02 09:25:34;;;;;;;3.20;1.90;;;;;;;19.80;41.88;101360.34;3608711;39;19979;-71
2021/07/02 09:28:05;;;;;;;;;;;;;;;19.58;43.01;101361.13;3610346;39;20083;-71
2021/07/02 09:30:38;;;;;;;4.55;2.25;;;;;;;19.88;41.78;101365.84;3608967;39;20274;-71
2021/07/02 09:33:09;;;;;;;4.40;2.03;;;;;;;19.97;41.47;101366.66;3576980;40;20405;-71
2021/07/02 09:35:46;;;;;;;4.20;2.30;;;;;;;20.02;41.08;101361.41;3576205;40;20064;-71
2021/07/02 09:38:16;;;;;;;4.57;2.30;;;;;;;20.04;41.09;101364.03;3577164;40;20056;-71
2021/07/02 09:40:45;;;;;;;4.93;2.20;;;;;;;20.09;41.43;101370.75;3576426;40;20044;-70
2021/07/02 09:43:15;;;;;;;5.68;2.80;;;;;;;20.15;41.06;101378.38;3577910;40;20057;-71
2021/07/02 09:45:45;;;;;;;3.90;2.35;;;;;;;20.19;40.74;101378.84;3576547;40;20086;-71
2021/07/02 09:48:15;;;;;;;4.43;2.47;;;;;;;20.21;40.29;101374.88;3577371;40;20043;-71
2021/07/02 09:50:50;;;;;;;5.25;3.10;;;;;;;20.22;39.68;101367.41;3576848;39;20040;-71
2021/07/02 09:53:19;;;;;;;6.10;3.08;;;;;;;20.24;39.92;101370.88;3609196;39;20108;-71
2021/07/02 09:55:51;;;;;;;4.22;2.47;;;;;;;20.25;40.29;101370.69;3608715;39;20335;-71
2021/07/02 09:58:21;;;;;;;4.38;2.60;;;;;;;20.25;40.68;101373.44;3597095;39;20047;-71
2021/07/02 10:00:52;;;;;;;5.38;2.85;;;;;;;20.28;40.50;101370.31;3605112;39;20087;-71
2021/07/02 10:03:24;;;;;;;4.85;2.80;;;;;;;20.31;40.19;101369.97;3604926;39;20410;-71
2021/07/02 10:05:55;;;;;;;4.68;2.50;;;;;;;20.33;40.55;101372.56;3608835;39;20052;-71
2021/07/02 10:08:26;;;;;;;5.43;2.70;;;;;;;20.39;40.40;101366.25;3614770;39;20100;-71
2021/07/02 10:10:55;;;;;;;3.70;2.17;;;;;;;20.43;40.92;101370.38;3599247;39;20044;-71
2021/07/02 10:13:26;;;;;;;4.55;2.67;;;;;;;20.49;40.30;101374.34;3614092;39;20501;-71
2021/07/02 10:15:57;;;;;;;4.25;2.20;;;;;;;20.55;40.09;101380.03;3608856;39;20078;-71
2021/07/02 10:18:28;;;;;;;4.43;2.42;;;;;;;20.62;40.46;101382.94;3614269;39;20047;-71
2021/07/02 10:21:02;;;;;;;4.43;2.30;;;;;;;20.72;39.03;101391.03;3608747;39;20066;-70
2021/07/02 10:23:35;;;;;;;3.72;2.13;;;;;;;20.78;39.28;101387.50;3599311;39;20047;-71
2021/07/02 10:26:07;;;;;;;3.92;2.40;;;;;;;20.80;39.25;101383.47;3598727;39;20043;-72
2021/07/02 10:28:37;;;;;;;4.70;2.40;;;;;;;20.82;38.84;101384.16;3613513;39;20055;-71
2021/07/02 10:31:07;;;;;;;5.25;2.88;;;;;;;20.87;39.44;101386.38;3608683;39;20055;-71
2021/07/02 10:33:39;;;;;;;5.43;3.00;;;;;;;20.90;38.63;101392.47;3594761;39;20055;-71
2021/07/02 10:36:09;;;;;;;4.40;2.58;;;;;;;20.91;39.19;101385.84;3608698;39;20426;-71
2021/07/02 10:38:39;;;;;;;5.95;2.58;;;;;;;20.95;39.06;101394.69;3613659;39;20370;-71
2021/07/02 10:41:10;;;;;;;4.93;2.75;;;;;;;20.97;38.87;101385.09;3608131;39;20413;-71
2021/07/02 10:43:38;;;;;;;4.38;2.60;;;;;;;20.99;38.72;101393.25;3612486;39;20051;-71
2021/07/02 10:46:17;;;;;;;4.80;2.75;;;;;;;21.04;38.49;101397.19;3608698;39;20101;-71
2021/07/02 10:49:02;;;;;;;4.80;2.65;;;;;;;21.06;38.32;101389.53;3608600;39;20132;-71
2021/07/02 10:51:53;;;;;;;6.15;3.10;;;;;;;21.06;38.53;101383.97;3608137;39;20425;-71
2021/07/02 10:54:32;;;;;;;4.13;2.83;;;;;;;21.10;37.77;101392.78;3607990;39;20056;-71
2021/07/02 10:57:06;;;;;;;4.60;2.90;;;;;;;21.13;38.70;101395.22;3608575;39;20282;-71
2021/07/02 11:00:07;;;;;;;3.90;2.70;;;;;;;21.11;38.10;101391.75;3608105;39;20377;-71
2021/07/02 11:02:35;;;;;;;4.93;2.70;;;;;;;21.12;39.04;101390.69;3607762;39;20040;-71
2021/07/02 11:05:26;;;;;;;5.05;2.92;;;;;;;21.18;38.84;101386.28;3607865;39;20058;-71
2021/07/02 11:07:55;;;;;;;5.22;2.92;;;;;;;21.22;39.01;101387.66;3607646;39;20051;-70
2021/07/02 11:10:23;;;;;;;6.32;3.28;;;;;;;21.25;38.93;101385.31;3601861;39;20048;-71
2021/07/02 11:13:03;;;;;;;5.22;3.38;;;;;;;21.34;37.79;101389.75;3598217;39;20043;-71
2021/07/02 11:15:32;;;;;;;6.40;3.55;;;;;;;21.36;38.64;101384.00;3601619;39;20043;-70
2021/07/02 11:18:15;;;;;;;5.72;3.35;;;;;;;21.44;37.94;101375.56;3605905;39;20059;-71
2021/07/02 11:20:45;;;;;;;6.20;3.50;;;;;;;21.47;38.25;101372.41;3607792;39;20299;-71
2021/07/02 11:23:24;;;;;;;7.13;4.18;;;;;;;21.54;37.64;101381.72;3608320;39;20083;-71
2021/07/02 11:26:05;;;;;;;5.60;3.53;;;;;;;21.56;37.81;101368.50;3596191;39;20502;-71
2021/07/02 11:28:45;;;;;;;5.75;3.30;;;;;;;21.65;37.34;101366.50;3607884;39;20051;-72
2021/07/02 11:31:14;;;;;;;6.07;3.60;;;;;;;21.66;38.07;101373.75;3607706;39;20136;-72
2021/07/02 11:33:44;;;;;;;5.93;3.63;;;;;;;21.70;37.87;101372.34;3607689;39;20058;-70
2021/07/02 11:36:15;;;;;;;6.43;3.80;;;;;;;21.75;37.21;101367.03;3607896;39;20059;-70
2021/07/02 11:38:56;;;;;;;6.90;3.72;;;;;;;21.79;37.00;101365.59;3599335;39;20135;-70
2021/07/02 11:41:33;;;;;;;5.90;3.83;;;;;;;21.83;37.24;101361.34;3601205;39;20059;-70
2021/07/02 11:44:04;;;;;;;5.68;3.65;;;;;;;21.89;37.64;101368.09;3608045;39;20402;-70